createdAt,value
2019-06-08T00:00:08.453Z,28.70
2019-06-08T00:02:39.915Z,28.70
2019-06-08T00:05:12.572Z,28.70
2019-06-08T00:07:43.915Z,28.70
2019-06-08T00:10:14.967Z,28.70
2019-06-08T00:12:46.297Z,28.70
2019-06-08T00:15:18.653Z,28.80
2019-06-08T00:17:49.924Z,28.80
2019-06-08T00:20:21.888Z,28.80
2019-06-08T00:22:52.879Z,28.90
2019-06-08T00:25:24.225Z,28.80
2019-06-08T00:27:55.448Z,28.90
2019-06-08T00:30:26.574Z,28.80
2019-06-08T00:32:57.696Z,28.80
2019-06-08T00:35:28.458Z,28.90
2019-06-08T00:37:59.366Z,28.90
2019-06-08T00:40:30.232Z,28.90
2019-06-08T00:43:01.126Z,29.00
2019-06-08T00:45:32.135Z,29.00
2019-06-08T00:48:02.986Z,29.10
2019-06-08T00:50:33.981Z,29.20
2019-06-08T00:53:04.974Z,29.20
2019-06-08T00:55:35.828Z,29.20
2019-06-08T00:58:27.323Z,29.20
2019-06-08T01:00:58.178Z,29.30
2019-06-08T01:03:30.038Z,29.40
2019-06-08T01:06:00.888Z,29.40
2019-06-08T01:08:31.761Z,29.50
2019-06-08T01:11:02.764Z,29.50
2019-06-08T01:13:34.169Z,29.60
2019-06-08T01:16:04.954Z,29.60
2019-06-08T01:18:35.745Z,29.70
2019-06-08T01:21:07.084Z,29.70
2019-06-08T01:23:37.991Z,29.80
2019-06-08T01:26:08.874Z,29.80
2019-06-08T01:28:40.024Z,29.90
2019-06-08T01:31:10.890Z,30.00
2019-06-08T01:33:41.777Z,30.00
2019-06-08T01:36:12.641Z,30.10
2019-06-08T01:38:43.633Z,30.20
2019-06-08T01:41:14.571Z,30.30
2019-06-08T01:43:45.479Z,30.30
2019-06-08T01:46:16.499Z,30.40
2019-06-08T01:48:47.255Z,30.50
2019-06-08T01:51:18.152Z,30.50
2019-06-08T01:53:49.236Z,30.60
2019-06-08T01:56:20.207Z,30.60
2019-06-08T01:58:51.146Z,30.70
2019-06-08T02:01:23.393Z,30.70
2019-06-08T02:03:55.075Z,30.80
2019-06-08T02:06:26.233Z,30.90
2019-06-08T02:08:57.136Z,30.90
2019-06-08T02:11:28.798Z,31.00
2019-06-08T02:14:01.254Z,31.00
2019-06-08T02:16:33.267Z,31.00
2019-06-08T02:19:04.345Z,31.10
2019-06-08T02:21:35.314Z,31.10
2019-06-08T02:24:06.157Z,31.20
2019-06-08T02:26:36.923Z,31.30
2019-06-08T02:29:07.712Z,31.50
2019-06-08T02:31:38.899Z,31.50
2019-06-08T02:34:09.948Z,31.60
2019-06-08T02:36:40.928Z,31.70
2019-06-08T02:39:12.132Z,31.80
2019-06-08T02:41:43.054Z,31.90
2019-06-08T02:44:13.939Z,31.80
2019-06-08T02:46:45.103Z,31.80
2019-06-08T02:49:16.045Z,31.90
2019-06-08T02:51:47.111Z,32.00
2019-06-08T02:54:18.004Z,32.10
2019-06-08T02:56:49.076Z,32.20
2019-06-08T02:59:20.055Z,32.20
2019-06-08T03:01:50.901Z,32.20
2019-06-08T03:04:22.258Z,32.20
2019-06-08T03:06:53.667Z,32.20
2019-06-08T03:09:24.504Z,32.30
2019-06-08T03:11:55.455Z,32.30
2019-06-08T03:14:30.848Z,32.40
2019-06-08T03:17:01.668Z,32.50
2019-06-08T03:19:33.359Z,32.50
2019-06-08T03:22:04.522Z,32.60
2019-06-08T03:24:38.740Z,32.70
2019-06-08T03:27:09.805Z,32.60
2019-06-08T03:29:42.168Z,32.60
2019-06-08T03:32:12.501Z,32.60
2019-06-08T03:34:54.765Z,32.60
2019-06-08T03:37:15.856Z,32.60
2019-06-08T03:39:46.886Z,32.70
2019-06-08T03:42:18.251Z,32.80
2019-06-08T03:44:49.213Z,32.80
2019-06-08T03:47:20.282Z,32.80
2019-06-08T03:49:56.746Z,32.90
2019-06-08T03:52:23.524Z,33.00
2019-06-08T03:54:54.508Z,32.90
2019-06-08T03:57:25.508Z,32.90
2019-06-08T03:59:56.500Z,32.90
2019-06-08T04:02:27.622Z,32.80
2019-06-08T04:04:59.209Z,32.80
2019-06-08T04:07:30.141Z,32.90
2019-06-08T04:10:01.126Z,33.00
2019-06-08T04:12:32.081Z,33.00
2019-06-08T04:15:04.248Z,33.00
2019-06-08T04:17:35.224Z,33.00
2019-06-08T04:20:11.497Z,32.90
2019-06-08T04:22:42.419Z,32.90
2019-06-08T04:25:14.670Z,33.00
2019-06-08T04:27:46.980Z,33.00
2019-06-08T04:30:17.838Z,33.00
2019-06-08T04:32:49.712Z,32.90
2019-06-08T04:35:20.897Z,32.80
2019-06-08T04:37:52.094Z,32.80
2019-06-08T04:40:23.276Z,32.80
2019-06-08T04:42:54.209Z,32.80
2019-06-08T04:45:25.057Z,32.80
2019-06-08T04:47:56.035Z,32.80
2019-06-08T04:50:26.856Z,32.90
2019-06-08T04:52:57.588Z,33.00
2019-06-08T04:55:28.409Z,33.20
2019-06-08T04:57:59.329Z,33.30
2019-06-08T05:00:31.365Z,33.40
2019-06-08T05:03:02.590Z,33.50
2019-06-08T05:05:54.325Z,33.60
2019-06-08T05:08:25.309Z,33.60
2019-06-08T05:10:56.442Z,33.70
2019-06-08T05:13:27.476Z,33.70
2019-06-08T05:15:58.621Z,33.70
2019-06-08T05:18:29.605Z,33.80
2019-06-08T05:21:00.434Z,33.80
2019-06-08T05:23:31.566Z,33.80
2019-06-08T05:26:02.452Z,33.80
2019-06-08T05:28:33.288Z,33.80
2019-06-08T05:31:04.276Z,33.80
2019-06-08T05:33:35.237Z,33.80
2019-06-08T05:36:06.457Z,33.80
2019-06-08T05:38:37.795Z,33.70
2019-06-08T05:41:08.702Z,33.60
2019-06-08T05:43:39.771Z,33.60
2019-06-08T05:46:10.628Z,33.60
2019-06-08T05:48:41.909Z,33.60
2019-06-08T05:51:12.915Z,33.60
2019-06-08T05:53:43.845Z,33.60
2019-06-08T05:56:14.876Z,33.40
2019-06-08T05:58:45.996Z,33.40
2019-06-08T06:01:17.224Z,33.40
2019-06-08T06:03:48.722Z,33.50
2019-06-08T06:06:20.338Z,33.50
2019-06-08T06:08:51.173Z,33.60
2019-06-08T06:11:21.928Z,33.60
2019-06-08T06:13:52.934Z,33.60
2019-06-08T06:16:25.297Z,33.60
2019-06-08T06:19:08.457Z,33.60
2019-06-08T06:21:39.392Z,33.60
2019-06-08T06:24:11.593Z,33.60
2019-06-08T06:26:43.232Z,33.70
2019-06-08T06:29:14.273Z,33.70
2019-06-08T06:31:45.819Z,33.80
2019-06-08T06:34:16.879Z,33.80
2019-06-08T06:36:47.791Z,33.80
2019-06-08T06:39:18.736Z,33.80
2019-06-08T06:41:49.954Z,33.90
2019-06-08T06:44:21.043Z,34.00
2019-06-08T06:46:52.503Z,33.90
2019-06-08T06:49:23.499Z,33.80
2019-06-08T06:51:54.341Z,33.80
2019-06-08T06:54:25.239Z,33.80
2019-06-08T06:56:56.275Z,33.90
2019-06-08T06:59:27.170Z,33.90
2019-06-08T07:01:58.208Z,33.90
2019-06-08T07:04:29.207Z,34.10
2019-06-08T07:07:00.197Z,34.00
2019-06-08T07:09:31.224Z,34.00
2019-06-08T07:12:02.166Z,34.00
2019-06-08T07:17:45.943Z,34.20
2019-06-08T07:23:08.674Z,34.20
2019-06-08T07:25:39.544Z,34.10
2019-06-08T07:28:10.556Z,34.10
2019-06-08T07:30:41.419Z,34.10
2019-06-08T07:33:12.356Z,34.20
2019-06-08T07:35:43.397Z,34.20
2019-06-08T07:38:33.704Z,34.20
2019-06-08T07:41:04.711Z,34.10
2019-06-08T07:43:36.501Z,34.10
2019-06-08T07:46:07.462Z,34.10
2019-06-08T07:48:38.494Z,34.10
2019-06-08T07:51:09.515Z,34.20
2019-06-08T07:53:53.571Z,34.30
2019-06-08T07:56:19.558Z,34.30
2019-06-08T08:01:40.763Z,34.20
2019-06-08T08:04:11.582Z,34.30
2019-06-08T08:06:42.431Z,34.30
2019-06-08T08:09:15.767Z,34.20
2019-06-08T08:11:46.563Z,34.20
2019-06-08T08:14:18.991Z,34.10
2019-06-08T08:16:50.928Z,34.10
2019-06-08T08:19:23.074Z,34.10
2019-06-08T08:21:54.954Z,34.10
2019-06-08T08:24:27.153Z,34.20
2019-06-08T08:27:02.057Z,34.20
2019-06-08T08:29:34.173Z,34.20
2019-06-08T08:32:07.441Z,34.20
2019-06-08T08:34:38.147Z,34.10
2019-06-08T08:37:14.832Z,34.20
2019-06-08T08:39:47.192Z,34.20
2019-06-08T08:42:18.192Z,34.30
2019-06-08T08:44:51.162Z,34.30
2019-06-08T08:47:21.097Z,34.30
2019-06-08T08:49:56.775Z,34.20
2019-06-08T08:52:36.840Z,34.20
2019-06-08T08:55:03.227Z,34.20
2019-06-08T08:57:35.203Z,34.30
2019-06-08T09:00:09.307Z,34.40
2019-06-08T09:02:43.512Z,34.30
2019-06-08T09:05:17.998Z,34.20
2019-06-08T09:07:52.015Z,34.20
2019-06-08T09:10:25.162Z,34.10
2019-06-08T09:12:58.856Z,34.20
2019-06-08T09:15:31.432Z,34.20
2019-06-08T09:18:03.338Z,34.30
2019-06-08T09:20:40.370Z,34.30
2019-06-08T09:23:15.736Z,34.30
2019-06-08T09:25:40.745Z,34.30
2019-06-08T09:28:12.269Z,34.30
2019-06-08T09:30:43.129Z,34.40
2019-06-08T09:33:14.318Z,34.30
2019-06-08T09:35:47.701Z,34.20
2019-06-08T09:38:18.637Z,34.20
2019-06-08T09:40:54.856Z,34.10
2019-06-08T09:43:24.698Z,34.10
2019-06-08T09:45:58.760Z,34.00
2019-06-08T09:48:29.363Z,33.90
2019-06-08T09:51:02.836Z,33.80
2019-06-08T09:53:37.480Z,33.90
2019-06-08T09:56:07.369Z,33.90
2019-06-08T09:58:41.382Z,33.90
2019-06-08T10:01:12.858Z,33.90
2019-06-08T10:03:43.955Z,33.90
2019-06-08T10:06:18.027Z,33.90
2019-06-08T10:08:48.069Z,33.80
2019-06-08T10:11:19.049Z,33.80
2019-06-08T10:13:49.948Z,33.70
2019-06-08T10:16:21.443Z,33.60
2019-06-08T10:18:52.353Z,33.60
2019-06-08T10:21:28.204Z,33.50
2019-06-08T10:24:00.623Z,33.50
2019-06-08T10:26:28.901Z,33.50
2019-06-08T10:29:03.682Z,33.40
2019-06-08T10:31:39.895Z,33.40
2019-06-08T10:34:10.701Z,33.40
2019-06-08T10:36:38.483Z,33.30
2019-06-08T10:39:12.707Z,33.40
2019-06-08T10:41:43.753Z,33.30
2019-06-08T10:44:14.767Z,33.30
2019-06-08T10:46:48.111Z,33.40
2019-06-08T10:49:18.623Z,33.30
2019-06-08T10:51:49.806Z,33.40
2019-06-08T10:54:21.044Z,33.40
2019-06-08T10:56:52.168Z,33.40
2019-06-08T10:59:23.742Z,33.30
2019-06-08T11:01:55.086Z,33.30
2019-06-08T11:04:28.505Z,33.20
2019-06-08T11:07:04.338Z,33.20
2019-06-08T11:09:30.992Z,33.20
2019-06-08T11:12:03.188Z,33.10
2019-06-08T11:14:34.302Z,33.00
2019-06-08T11:17:08.302Z,33.00
2019-06-08T11:19:38.064Z,32.90
2019-06-08T11:22:14.299Z,32.90
2019-06-08T11:24:43.078Z,32.80
2019-06-08T11:27:13.860Z,32.80
2019-06-08T11:29:47.624Z,32.80
2019-06-08T11:32:18.366Z,32.70
2019-06-08T11:34:49.424Z,32.70
2019-06-08T11:37:21.103Z,32.70
2019-06-08T11:39:52.072Z,32.60
2019-06-08T11:42:25.559Z,32.60
2019-06-08T11:44:55.425Z,32.60
2019-06-08T11:47:27.779Z,32.50
2019-06-08T11:50:00.421Z,32.50
2019-06-08T11:52:30.935Z,32.40
2019-06-08T11:55:02.546Z,32.50
2019-06-08T11:57:34.422Z,32.40
2019-06-08T12:00:15.104Z,32.40
2019-06-08T12:02:41.298Z,32.40
2019-06-08T12:05:14.160Z,32.40
2019-06-08T12:07:44.425Z,32.40
2019-06-08T12:10:17.646Z,32.40
2019-06-08T12:12:48.058Z,32.40
2019-06-08T12:15:21.142Z,32.40
2019-06-08T12:17:51.338Z,32.40
2019-06-08T12:20:24.425Z,32.40
2019-06-08T12:22:54.624Z,32.30
2019-06-08T12:25:25.741Z,32.30
2019-06-08T12:27:58.427Z,32.20
2019-06-08T12:30:29.651Z,32.20
2019-06-08T12:33:00.782Z,32.20
2019-06-08T12:35:31.635Z,32.20
2019-06-08T12:38:03.632Z,32.20
2019-06-08T12:40:34.532Z,32.10
2019-06-08T12:43:07.839Z,32.10
2019-06-08T12:45:38.196Z,32.10
2019-06-08T12:48:14.644Z,32.10
2019-06-08T12:50:41.604Z,32.10
2019-06-08T12:53:15.944Z,32.10
2019-06-08T12:55:44.871Z,32.00
2019-06-08T12:58:17.127Z,32.00
2019-06-08T13:00:48.466Z,32.00
2019-06-08T13:03:19.443Z,32.00
2019-06-08T13:05:50.396Z,32.00
2019-06-08T13:08:21.843Z,32.00
2019-06-08T13:10:53.567Z,32.00
2019-06-08T13:13:24.739Z,32.00
2019-06-08T13:15:57.905Z,32.00
2019-06-08T13:18:27.907Z,32.00
2019-06-08T13:21:03.274Z,31.90
2019-06-08T13:23:32.784Z,31.90
2019-06-08T13:26:04.006Z,31.90
2019-06-08T13:28:34.831Z,31.90
2019-06-08T13:31:07.834Z,31.90
2019-06-08T13:33:38.276Z,31.90
2019-06-08T13:36:26.423Z,31.80
2019-06-08T13:38:54.838Z,31.80
2019-06-08T13:41:29.046Z,31.80
2019-06-08T13:43:58.206Z,31.80
2019-06-08T13:46:29.162Z,31.80
2019-06-08T13:49:00.465Z,31.70
2019-06-08T13:51:31.535Z,31.70
2019-06-08T13:54:02.518Z,31.70
2019-06-08T13:56:33.744Z,31.70
2019-06-08T13:59:04.762Z,31.70
2019-06-08T14:01:37.868Z,31.60
2019-06-08T14:04:08.942Z,31.60
2019-06-08T14:06:40.248Z,31.60
2019-06-08T14:09:11.413Z,31.60
2019-06-08T14:11:42.821Z,31.60
2019-06-08T14:14:14.926Z,31.60
2019-06-08T14:16:50.393Z,31.50
2019-06-08T14:19:21.260Z,31.50
2019-06-08T14:21:51.359Z,31.50
2019-06-08T14:24:27.296Z,31.50
2019-06-08T14:26:55.308Z,31.40
2019-06-08T14:29:28.664Z,31.40
2019-06-08T14:31:58.896Z,31.30
2019-06-08T14:34:31.239Z,31.30
2019-06-08T14:37:02.516Z,31.30
2019-06-08T14:39:33.564Z,31.30
2019-06-08T14:42:04.543Z,31.30
2019-06-08T14:44:35.364Z,31.30
2019-06-08T14:47:08.036Z,31.30
2019-06-08T14:49:38.468Z,31.30
2019-06-08T14:52:10.869Z,31.30
2019-06-08T14:54:41.800Z,31.30
2019-06-08T14:57:12.906Z,31.20
2019-06-08T14:59:43.883Z,31.20
2019-06-08T15:02:14.918Z,31.20
2019-06-08T15:04:45.710Z,31.20
2019-06-08T15:07:20.182Z,31.20
2019-06-08T15:09:48.592Z,31.20
2019-06-08T15:12:19.668Z,31.20
2019-06-08T15:14:50.489Z,31.20
2019-06-08T15:17:21.834Z,31.20
2019-06-08T15:19:52.829Z,31.20
2019-06-08T15:22:24.159Z,31.10
2019-06-08T15:24:58.026Z,31.10
2019-06-08T15:27:32.813Z,31.10
2019-06-08T15:30:01.497Z,31.10
2019-06-08T15:32:35.392Z,31.00
2019-06-08T15:35:04.830Z,31.00
2019-06-08T15:37:38.101Z,30.90
2019-06-08T15:40:08.248Z,30.90
2019-06-08T15:42:39.287Z,30.80
2019-06-08T15:45:10.087Z,30.70
2019-06-08T15:47:40.981Z,30.70
2019-06-08T15:50:11.796Z,30.70
2019-06-08T15:52:42.810Z,30.70
2019-06-08T15:55:14.026Z,30.70
2019-06-08T15:57:44.883Z,30.70
2019-06-08T16:00:18.282Z,30.70
2019-06-08T16:02:48.202Z,30.70
2019-06-08T16:05:19.012Z,30.70
2019-06-08T16:07:49.993Z,30.60
2019-06-08T16:10:21.084Z,30.60
2019-06-08T16:12:52.604Z,30.50
2019-06-08T16:15:24.734Z,30.50
2019-06-08T16:17:55.832Z,30.50
2019-06-08T16:20:27.551Z,30.50
2019-06-08T16:22:58.508Z,30.60
2019-06-08T16:25:34.953Z,30.50
2019-06-08T16:28:03.264Z,30.50
2019-06-08T16:30:35.068Z,30.50
2019-06-08T16:33:05.949Z,30.50
2019-06-08T16:35:36.838Z,30.50
2019-06-08T16:38:07.974Z,30.50
2019-06-08T16:40:40.377Z,30.40
2019-06-08T16:43:10.973Z,30.40
2019-06-08T16:45:42.020Z,30.30
2019-06-08T16:48:12.964Z,30.30
2019-06-08T16:50:43.991Z,30.30
2019-06-08T16:53:15.186Z,30.30
2019-06-08T16:55:45.969Z,30.30
2019-06-08T16:58:17.020Z,30.20
2019-06-08T17:00:48.144Z,30.30
2019-06-08T17:03:19.244Z,30.30
2019-06-08T17:05:50.271Z,30.30
2019-06-08T17:08:42.150Z,30.20
2019-06-08T17:11:13.068Z,30.20
2019-06-08T17:13:44.381Z,30.20
2019-06-08T17:16:15.262Z,30.20
2019-06-08T17:18:46.223Z,30.10
2019-06-08T17:21:17.244Z,30.10
2019-06-08T17:23:48.163Z,30.00
2019-06-08T17:26:20.438Z,30.00
2019-06-08T17:28:51.535Z,30.00
2019-06-08T17:31:42.488Z,30.00
2019-06-08T17:34:13.355Z,30.00
2019-06-08T17:36:44.164Z,29.90
2019-06-08T17:39:14.913Z,29.90
2019-06-08T17:41:45.733Z,29.90
2019-06-08T17:44:16.725Z,29.80
2019-06-08T17:46:47.687Z,29.80
2019-06-08T17:49:18.647Z,29.80
2019-06-08T17:51:49.406Z,29.80
2019-06-08T17:54:20.283Z,29.80
2019-06-08T17:56:51.216Z,29.80
2019-06-08T17:59:22.335Z,29.80
2019-06-08T18:01:53.201Z,29.70
2019-06-08T18:04:24.328Z,29.70
2019-06-08T18:06:55.080Z,29.70
2019-06-08T18:09:28.016Z,29.70
2019-06-08T18:11:59.639Z,29.70
2019-06-08T18:14:30.964Z,29.70
2019-06-08T18:17:01.926Z,29.70
2019-06-08T18:19:34.163Z,29.70
2019-06-08T18:22:06.795Z,29.60
2019-06-08T18:24:39.443Z,29.60
2019-06-08T18:27:11.116Z,29.50
2019-06-08T18:29:42.937Z,29.60
2019-06-08T18:32:14.850Z,29.50
2019-06-08T18:34:47.925Z,29.50
2019-06-08T18:37:18.243Z,29.50
2019-06-08T18:39:49.595Z,29.40
2019-06-08T18:42:21.023Z,29.40
2019-06-08T18:44:52.137Z,29.40
2019-06-08T18:47:22.937Z,29.30
2019-06-08T18:49:53.710Z,29.30
2019-06-08T18:52:24.541Z,29.30
2019-06-08T18:54:57.706Z,29.30
2019-06-08T18:57:27.766Z,29.30
2019-06-08T18:59:58.600Z,29.30
2019-06-08T19:02:29.742Z,29.30
2019-06-08T19:05:00.628Z,29.30
2019-06-08T19:07:31.787Z,29.30
2019-06-08T19:10:03.741Z,29.30
2019-06-08T19:12:38.367Z,29.30
2019-06-08T19:15:11.358Z,29.40
2019-06-08T19:17:43.631Z,29.40
2019-06-08T19:20:12.153Z,29.30
2019-06-08T19:22:46.518Z,29.30
2019-06-08T19:25:17.573Z,29.30
2019-06-08T19:27:53.077Z,29.20
2019-06-08T19:30:24.619Z,29.20
2019-06-08T19:32:54.281Z,29.20
2019-06-08T19:35:27.223Z,29.10
2019-06-08T19:37:58.302Z,29.10
2019-06-08T19:40:29.292Z,29.20
2019-06-08T19:43:01.452Z,29.20
2019-06-08T19:45:32.429Z,29.20
2019-06-08T19:48:03.578Z,29.20
2019-06-08T19:50:34.740Z,29.20
2019-06-08T19:53:07.350Z,29.20
2019-06-08T19:55:39.115Z,29.20
2019-06-08T19:58:10.487Z,29.20
2019-06-08T20:00:42.344Z,29.10
2019-06-08T20:03:13.613Z,29.10
2019-06-08T20:05:45.374Z,29.10
2019-06-08T20:08:17.548Z,29.10
2019-06-08T20:10:49.604Z,29.10
2019-06-08T20:13:21.066Z,29.10
2019-06-08T20:15:58.314Z,29.00
2019-06-08T20:18:25.018Z,29.00
2019-06-08T20:20:58.430Z,29.00
2019-06-08T20:23:28.426Z,29.00
2019-06-08T20:26:00.808Z,29.00
2019-06-08T20:28:33.279Z,28.90
2019-06-08T20:31:04.182Z,28.90
2019-06-08T20:33:34.923Z,28.90
2019-06-08T20:36:08.037Z,29.00
2019-06-08T20:38:41.988Z,28.90
2019-06-08T20:41:10.754Z,28.90
2019-06-08T20:43:42.611Z,28.90
2019-06-08T20:46:13.758Z,28.80
2019-06-08T20:48:44.508Z,28.80
2019-06-08T20:51:17.248Z,28.80
2019-06-08T20:53:50.323Z,28.70
2019-06-08T20:56:20.557Z,28.60
2019-06-08T20:58:52.499Z,28.70
2019-06-08T21:01:23.929Z,28.70
2019-06-08T21:03:56.994Z,28.70
2019-06-08T21:06:27.973Z,28.70
2019-06-08T21:08:59.887Z,28.70
2019-06-08T21:11:30.958Z,28.60
2019-06-08T21:14:01.882Z,28.70
2019-06-08T21:16:33.216Z,28.60
2019-06-08T21:19:04.306Z,28.70
2019-06-08T21:21:37.558Z,28.60
2019-06-08T21:24:07.861Z,28.60
2019-06-08T21:26:38.645Z,28.60
2019-06-08T21:29:11.053Z,28.60
2019-06-08T21:31:42.021Z,28.60
2019-06-08T21:34:13.116Z,28.60
2019-06-08T21:36:44.014Z,28.60
2019-06-08T21:39:17.255Z,28.60
2019-06-08T21:41:50.083Z,28.60
2019-06-08T21:44:19.551Z,28.60
2019-06-08T21:46:51.759Z,28.60
2019-06-08T21:49:22.522Z,28.60
2019-06-08T21:51:54.464Z,28.70
2019-06-08T21:54:27.183Z,28.70
2019-06-08T21:57:00.668Z,28.60
2019-06-08T22:00:34.664Z,28.60
2019-06-08T22:02:44.543Z,28.70
2019-06-08T22:05:15.421Z,28.60
2019-06-08T22:07:47.169Z,28.60
2019-06-08T22:10:18.299Z,28.60
2019-06-08T22:12:51.794Z,28.50
2019-06-08T22:15:21.731Z,28.50
2019-06-08T22:17:53.122Z,28.50
2019-06-08T22:20:24.155Z,28.50
2019-06-08T22:22:55.151Z,28.50
2019-06-08T22:25:27.832Z,28.50
2019-06-08T22:27:59.817Z,28.50
2019-06-08T22:30:39.218Z,28.50
2019-06-08T22:33:03.954Z,28.60
2019-06-08T22:35:37.089Z,28.50
2019-06-08T22:38:08.430Z,28.50
2019-06-08T22:40:39.674Z,28.50
2019-06-08T22:43:12.081Z,28.50
2019-06-08T22:45:42.938Z,28.50
2019-06-08T22:48:14.167Z,28.50
2019-06-08T22:50:47.524Z,28.40
2019-06-08T22:53:17.463Z,28.30
2019-06-08T22:55:48.510Z,28.20
2019-06-08T22:58:19.483Z,28.20
2019-06-08T23:00:52.961Z,28.20
2019-06-08T23:03:22.737Z,28.20
2019-06-08T23:05:54.796Z,28.20
2019-06-08T23:08:26.021Z,28.20
2019-06-08T23:10:58.930Z,28.20
2019-06-08T23:13:29.234Z,28.20
2019-06-08T23:16:02.508Z,28.20
2019-06-08T23:18:32.692Z,28.20
2019-06-08T23:21:06.564Z,28.30
2019-06-08T23:23:38.063Z,28.30
2019-06-08T23:26:10.427Z,28.30
2019-06-08T23:28:41.572Z,28.30
2019-06-08T23:31:21.499Z,28.40
2019-06-08T23:33:44.841Z,28.40
2019-06-08T23:36:45.020Z,28.50
2019-06-08T23:38:48.627Z,28.50
2019-06-08T23:41:19.682Z,28.50
2019-06-08T23:43:50.606Z,28.50
2019-06-08T23:46:23.080Z,28.60
2019-06-08T23:48:53.937Z,28.60
2019-06-08T23:51:27.373Z,28.70
2019-06-08T23:53:59.667Z,28.80
2019-06-08T23:56:31.009Z,28.80
2019-06-08T23:59:03.096Z,28.90
